Time;durP1;ratioP1;P1;durP2;ratioP2;P2;SDS_P1;SDS_P2;PMS_P1;PMS_P2;Temp;Humidity;BMP_temperature;BMP_pressure;BME280_temperature;BME280_humidity;BME280_pressure;Samples;Min_cycle;Max_cycle;Signal;HPM_P1;HPM_P2
2021/08/30 00:00:43;;;;;;;5.10;4.53;;;16.20;99.90;;;;;;5005249;28;20222;-70
2021/08/30 00:03:09;;;;;;;6.10;5.47;;;16.20;99.90;;;;;;4988994;28;20225;-70
2021/08/30 00:05:35;;;;;;;5.57;4.57;;;16.20;99.90;;;;;;4987340;28;20233;-70
2021/08/30 00:08:00;;;;;;;4.30;3.90;;;16.20;99.90;;;;;;4989404;28;20218;-70
2021/08/30 00:10:27;;;;;;;6.13;4.70;;;16.20;99.90;;;;;;4985966;28;20241;-71
2021/08/30 00:12:53;;;;;;;5.43;4.93;;;16.20;99.90;;;;;;4951411;28;20470;-70
2021/08/30 00:15:20;;;;;;;6.70;4.80;;;16.20;99.90;;;;;;4969550;28;20466;-71
2021/08/30 00:17:46;;;;;;;6.00;5.00;;;16.20;99.90;;;;;;4969404;28;20231;-71
2021/08/30 00:20:17;;;;;;;6.53;4.90;;;16.20;99.90;;;;;;4988738;28;20833;-70
2021/08/30 00:22:44;;;;;;;4.93;4.07;;;16.20;99.90;;;;;;4983394;28;20312;-70
2021/08/30 00:25:10;;;;;;;5.63;4.10;;;16.20;99.90;;;;;;4976843;28;20494;-70
2021/08/30 00:27:36;;;;;;;4.33;3.93;;;16.20;99.90;;;;;;4986483;28;20540;-70
2021/08/30 00:30:03;;;;;;;4.17;3.77;;;16.20;99.90;;;;;;4988019;28;21013;-70
2021/08/30 00:32:29;;;;;;;4.60;3.83;;;16.20;99.90;;;;;;4987213;28;20253;-69
2021/08/30 00:34:55;;;;;;;4.80;4.30;;;16.20;99.90;;;;;;4988935;28;20864;-71
2021/08/30 00:37:20;;;;;;;3.70;3.37;;;16.20;99.90;;;;;;4988982;28;20233;-70
2021/08/30 00:39:50;;;;;;;4.30;3.43;;;16.10;99.90;;;;;;4985442;28;20222;-70
2021/08/30 00:42:16;;;;;;;4.97;4.13;;;16.20;99.90;;;;;;4988219;28;20225;-70
2021/08/30 00:44:42;;;;;;;4.03;3.63;;;16.20;99.90;;;;;;4985391;28;20457;-70
2021/08/30 00:47:07;;;;;;;5.20;4.50;;;16.10;99.90;;;;;;4980719;28;20611;-70
2021/08/30 00:49:33;;;;;;;4.57;4.17;;;16.10;99.90;;;;;;4990242;28;20692;-70
2021/08/30 00:51:59;;;;;;;4.30;3.90;;;16.20;99.90;;;;;;4999762;28;20229;-70
2021/08/30 00:54:29;;;;;;;4.80;4.30;;;16.10;99.90;;;;;;4988474;28;20233;-70
2021/08/30 00:56:56;;;;;;;5.40;3.60;;;16.10;99.90;;;;;;4988259;28;20226;-70
2021/08/30 00:59:22;;;;;;;3.90;3.50;;;16.20;99.90;;;;;;4993684;28;20551;-70
2021/08/30 01:01:50;;;;;;;3.77;3.30;;;16.10;99.90;;;;;;4990895;28;20564;-70
2021/08/30 01:04:17;;;;;;;4.90;3.70;;;16.10;99.90;;;;;;4989678;28;20725;-70
2021/08/30 01:06:49;;;;;;;4.33;3.63;;;16.20;99.90;;;;;;4986271;28;20832;-70
2021/08/30 01:09:44;;;;;;;3.83;3.43;;;16.10;99.90;;;;;;4987181;28;20461;-70
2021/08/30 01:12:14;;;;;;;3.33;3.00;;;16.10;99.90;;;;;;4979848;28;20454;-70
2021/08/30 01:14:56;;;;;;;4.00;3.23;;;16.10;99.90;;;;;;4985596;28;20562;-70
2021/08/30 01:17:23;;;;;;;5.53;3.83;;;16.20;99.90;;;;;;4987616;28;20487;-70
2021/08/30 01:20:02;;;;;;;4.50;4.10;;;16.10;99.90;;;;;;4985695;28;20461;-70
2021/08/30 01:22:29;;;;;;;4.40;3.50;;;16.10;99.90;;;;;;4999505;28;20464;-70
2021/08/30 01:24:56;;;;;;;3.30;2.90;;;16.10;99.90;;;;;;4993542;28;20493;-71
2021/08/30 01:27:24;;;;;;;3.37;3.00;;;16.10;99.90;;;;;;4986809;28;20469;-70
2021/08/30 01:30:01;;;;;;;5.10;3.77;;;16.10;99.90;;;;;;4985449;28;20460;-70
2021/08/30 01:32:37;;;;;;;4.33;3.63;;;16.10;99.90;;;;;;4986838;28;20469;-70
2021/08/30 01:35:10;;;;;;;4.47;3.50;;;16.10;99.90;;;;;;5003483;28;20483;-70
2021/08/30 01:37:38;;;;;;;4.33;3.90;;;16.10;99.90;;;;;;4984092;28;20477;-70
2021/08/30 01:40:06;;;;;;;3.73;2.90;;;16.10;99.90;;;;;;4988660;28;20433;-70
2021/08/30 01:42:34;;;;;;;4.30;3.90;;;16.10;99.90;;;;;;4973576;28;20463;-71
2021/08/30 01:45:01;;;;;;;4.73;3.40;;;16.10;99.90;;;;;;4990939;28;20457;-71
2021/08/30 01:47:29;;;;;;;4.60;3.43;;;16.10;99.90;;;;;;4990392;28;20449;-70
2021/08/30 01:50:03;;;;;;;3.47;3.13;;;16.10;99.90;;;;;;4963971;28;20461;-70
2021/08/30 01:52:31;;;;;;;3.43;3.13;;;16.10;99.90;;;;;;4962769;28;20461;-71
2021/08/30 01:55:04;;;;;;;5.17;4.10;;;16.10;99.90;;;;;;4955928;28;20524;-71
2021/08/30 01:57:38;;;;;;;3.67;3.37;;;16.20;99.90;;;;;;4989895;28;20512;-70
2021/08/30 02:02:48;;;;;;;3.90;3.00;;;16.10;99.90;;;;;;5005675;28;20464;-70
2021/08/30 02:05:13;;;;;;;3.63;3.00;;;16.10;99.90;;;;;;5006051;28;20457;-70
2021/08/30 02:07:39;;;;;;;3.47;3.17;;;16.10;99.90;;;;;;4989754;28;20218;-70
2021/08/30 02:10:05;;;;;;;5.70;4.50;;;16.10;99.90;;;;;;4990334;28;20312;-70
2021/08/30 02:12:31;;;;;;;5.07;3.40;;;16.10;99.90;;;;;;4989151;28;20226;-70
2021/08/30 02:14:57;;;;;;;4.20;3.50;;;16.10;99.90;;;;;;4973268;28;20463;-70
2021/08/30 02:17:30;;;;;;;4.10;3.13;;;16.10;99.90;;;;;;5006156;28;20911;-70
2021/08/30 02:20:06;;;;;;;3.20;2.90;;;16.10;99.90;;;;;;5006179;28;20260;-71
2021/08/30 02:22:42;;;;;;;3.40;3.10;;;16.10;99.90;;;;;;4997176;28;20452;-71
2021/08/30 02:25:13;;;;;;;5.03;3.70;;;16.20;99.90;;;;;;4989467;28;20497;-70
2021/08/30 02:28:06;;;;;;;3.30;3.00;;;16.10;99.90;;;;;;4973246;28;20473;-70
2021/08/30 02:30:36;;;;;;;3.60;3.27;;;16.10;99.90;;;;;;5005109;28;20512;-70
2021/08/30 02:33:10;;;;;;;4.70;3.97;;;16.10;99.90;;;;;;5005463;28;20449;-70
2021/08/30 02:35:41;;;;;;;4.20;3.60;;;16.10;99.90;;;;;;4969769;28;20472;-70
2021/08/30 02:38:09;;;;;;;4.90;3.80;;;16.10;99.90;;;;;;4970369;28;20474;-70
2021/08/30 02:40:36;;;;;;;4.70;4.03;;;16.20;99.90;;;;;;4970062;28;20454;-70
2021/08/30 02:43:03;;;;;;;6.10;3.03;;;16.10;99.90;;;;;;4971226;28;20850;-71
2021/08/30 02:45:29;;;;;;;6.90;4.20;;;16.20;99.90;;;;;;4977827;28;20497;-70
2021/08/30 02:47:58;;;;;;;4.37;3.60;;;16.20;99.90;;;;;;4993741;28;20460;-70
2021/08/30 02:50:25;;;;;;;5.40;3.80;;;16.10;99.90;;;;;;4994090;28;20480;-71
2021/08/30 02:52:52;;;;;;;5.00;4.00;;;16.10;99.90;;;;;;4959384;28;20469;-70
2021/08/30 02:55:18;;;;;;;4.90;4.13;;;16.10;99.90;;;;;;4974842;28;20490;-70
2021/08/30 02:57:48;;;;;;;5.13;4.40;;;16.10;99.90;;;;;;4989434;28;20480;-70
2021/08/30 03:00:15;;;;;;;5.50;4.20;;;16.10;99.90;;;;;;4999790;28;20814;-71
2021/08/30 03:02:40;;;;;;;5.97;4.13;;;16.10;99.90;;;;;;4989934;28;20460;-70
2021/08/30 03:05:07;;;;;;;4.83;4.33;;;16.10;99.90;;;;;;4989658;28;20479;-70
2021/08/30 03:07:34;;;;;;;7.30;5.10;;;16.10;99.90;;;;;;4989347;28;20232;-70
2021/08/30 03:10:00;;;;;;;6.03;5.03;;;16.10;99.90;;;;;;4989576;28;20957;-70
2021/08/30 03:12:30;;;;;;;4.73;4.33;;;16.10;99.90;;;;;;4989042;28;20468;-70
2021/08/30 03:15:03;;;;;;;7.00;5.63;;;16.10;99.90;;;;;;4989258;28;20249;-71
2021/08/30 03:17:34;;;;;;;8.57;4.67;;;16.10;99.90;;;;;;4986854;28;20477;-70
2021/08/30 03:20:00;;;;;;;5.27;4.60;;;16.10;99.90;;;;;;4985790;28;20457;-70
2021/08/30 03:22:26;;;;;;;5.20;4.60;;;16.10;99.90;;;;;;4997615;28;21031;-70
2021/08/30 03:24:55;;;;;;;8.60;5.57;;;16.10;99.90;;;;;;4990590;28;20467;-70
2021/08/30 03:27:23;;;;;;;5.43;4.23;;;16.20;99.90;;;;;;4985857;28;20461;-71
2021/08/30 03:29:49;;;;;;;6.17;4.53;;;16.20;99.90;;;;;;4980283;28;20462;-70
2021/08/30 03:32:16;;;;;;;8.53;5.37;;;16.20;99.90;;;;;;4983293;28;20465;-70
2021/08/30 03:34:43;;;;;;;6.90;4.53;;;16.10;99.90;;;;;;4983845;28;20988;-70
2021/08/30 03:37:09;;;;;;;7.97;5.50;;;16.10;99.90;;;;;;4985348;28;20536;-70
2021/08/30 03:39:35;;;;;;;7.93;5.00;;;16.10;99.90;;;;;;4983811;28;20523;-70
2021/08/30 03:42:03;;;;;;;5.77;5.17;;;16.10;99.90;;;;;;4985532;28;20457;-70
2021/08/30 03:44:29;;;;;;;12.10;5.40;;;16.10;99.90;;;;;;4969901;28;20517;-70
2021/08/30 03:46:55;;;;;;;7.30;4.70;;;16.10;99.90;;;;;;4986433;28;20460;-71
2021/08/30 03:49:26;;;;;;;6.43;4.77;;;16.10;99.90;;;;;;5018710;28;20507;-70
2021/08/30 03:51:52;;;;;;;6.70;5.03;;;16.10;99.90;;;;;;4986846;28;20549;-70
2021/08/30 03:54:19;;;;;;;8.47;5.83;;;16.10;99.90;;;;;;4989672;28;20465;-71
2021/08/30 03:56:47;;;;;;;6.57;4.40;;;16.10;99.90;;;;;;4971151;28;20473;-70
2021/08/30 03:59:15;;;;;;;6.53;5.67;;;16.10;99.90;;;;;;4993841;28;20488;-70
2021/08/30 04:01:45;;;;;;;8.27;5.77;;;16.10;99.90;;;;;;5006441;28;21043;-70
2021/08/30 04:04:17;;;;;;;7.80;5.20;;;16.10;99.90;;;;;;5006793;28;20478;-70
2021/08/30 04:06:43;;;;;;;7.03;5.90;;;16.10;99.90;;;;;;4997193;28;20592;-71
2021/08/30 04:09:09;;;;;;;7.77;5.20;;;16.10;99.90;;;;;;4989246;28;20465;-71
2021/08/30 04:11:35;;;;;;;7.10;6.07;;;16.10;99.90;;;;;;4986166;28;20514;-71
2021/08/30 04:14:01;;;;;;;9.27;5.77;;;16.10;99.90;;;;;;4989151;28;20469;-69
2021/08/30 04:16:27;;;;;;;7.30;5.60;;;16.10;99.90;;;;;;4972864;28;20225;-70
2021/08/30 04:18:52;;;;;;;6.13;5.00;;;16.10;99.90;;;;;;4986343;28;20230;-70
2021/08/30 04:21:18;;;;;;;9.10;5.90;;;16.10;99.90;;;;;;4990757;28;20226;-70
2021/08/30 04:23:43;;;;;;;8.03;5.70;;;16.10;99.90;;;;;;5003858;28;20307;-71
2021/08/30 04:26:09;;;;;;;7.13;5.53;;;16.10;99.90;;;;;;4988274;28;20237;-71
2021/08/30 04:28:35;;;;;;;7.10;5.60;;;16.10;99.90;;;;;;4986845;28;20249;-71
2021/08/30 04:31:00;;;;;;;6.50;5.13;;;16.10;99.90;;;;;;4989109;28;20280;-71
2021/08/30 04:33:26;;;;;;;7.00;6.10;;;16.10;99.90;;;;;;4987874;28;20590;-70
2021/08/30 04:35:52;;;;;;;8.90;7.20;;;16.10;99.90;;;;;;4986948;28;20583;-70
2021/08/30 04:38:18;;;;;;;8.67;6.37;;;16.10;99.90;;;;;;4972533;28;20237;-71
2021/08/30 04:40:43;;;;;;;8.40;6.10;;;16.10;99.90;;;;;;4987022;28;20300;-71
2021/08/30 04:43:11;;;;;;;6.73;5.47;;;16.10;99.90;;;;;;4984223;28;20226;-70
2021/08/30 04:45:37;;;;;;;7.40;5.97;;;16.10;99.90;;;;;;4955802;28;20225;-70
2021/08/30 04:48:04;;;;;;;6.93;6.03;;;16.10;99.90;;;;;;5004901;28;21007;-70
2021/08/30 04:50:29;;;;;;;8.77;6.60;;;16.10;99.90;;;;;;4987689;28;20495;-71
2021/08/30 04:52:55;;;;;;;7.90;5.70;;;16.10;99.90;;;;;;4988147;28;20496;-70
2021/08/30 04:55:21;;;;;;;9.03;6.33;;;16.10;99.90;;;;;;4988462;28;20256;-70
2021/08/30 04:57:47;;;;;;;10.30;6.10;;;16.10;99.90;;;;;;4987178;28;20230;-70
2021/08/30 05:00:13;;;;;;;9.93;6.80;;;16.10;99.90;;;;;;5005396;28;20519;-72
2021/08/30 05:02:39;;;;;;;10.67;7.47;;;16.10;99.90;;;;;;4985597;28;20237;-71
2021/08/30 05:05:05;;;;;;;11.27;7.50;;;16.00;99.90;;;;;;4988444;28;20465;-70
2021/08/30 05:07:31;;;;;;;9.93;6.40;;;16.10;99.90;;;;;;4985248;28;20276;-70
2021/08/30 05:09:57;;;;;;;7.23;5.53;;;16.10;99.90;;;;;;4987774;28;20465;-70
2021/08/30 05:12:26;;;;;;;9.17;6.70;;;16.10;99.90;;;;;;4986894;28;20221;-69
2021/08/30 05:14:52;;;;;;;11.63;6.40;;;16.10;99.90;;;;;;4969307;28;20232;-70
2021/08/30 05:17:18;;;;;;;6.67;5.97;;;16.10;99.90;;;;;;4987679;28;20487;-71
2021/08/30 05:19:43;;;;;;;7.80;6.40;;;16.10;99.90;;;;;;4985096;28;20450;-70
2021/08/30 05:22:10;;;;;;;7.87;5.97;;;16.10;99.90;;;;;;4987176;28;20229;-70
2021/08/30 05:24:36;;;;;;;6.90;6.00;;;16.10;99.90;;;;;;4987140;28;20218;-70
2021/08/30 05:27:02;;;;;;;7.30;6.37;;;16.10;99.90;;;;;;4987610;28;20518;-70
2021/08/30 05:29:28;;;;;;;7.33;6.40;;;16.10;99.90;;;;;;4983113;28;20453;-70
2021/08/30 05:31:53;;;;;;;6.93;6.10;;;16.10;99.90;;;;;;4985548;28;20241;-70
2021/08/30 05:34:19;;;;;;;7.87;6.23;;;16.10;99.90;;;;;;4970815;28;20230;-70
2021/08/30 05:36:44;;;;;;;7.73;6.50;;;16.10;99.90;;;;;;4983292;28;20226;-70
2021/08/30 05:39:10;;;;;;;9.97;7.30;;;16.10;99.90;;;;;;4986856;28;20296;-71
2021/08/30 05:41:36;;;;;;;7.70;5.90;;;16.10;99.90;;;;;;4967734;28;20305;-69
2021/08/30 05:44:01;;;;;;;8.03;6.00;;;16.10;99.90;;;;;;4968960;28;20229;-71
2021/08/30 05:46:27;;;;;;;8.17;6.77;;;16.10;99.90;;;;;;4985015;28;20213;-69
2021/08/30 05:48:53;;;;;;;9.00;7.57;;;16.10;99.90;;;;;;4989537;28;20221;-71
2021/08/30 05:51:18;;;;;;;8.83;6.30;;;16.10;99.90;;;;;;5001854;28;20230;-70
2021/08/30 05:53:44;;;;;;;10.37;7.67;;;16.10;99.90;;;;;;4983622;28;20249;-70
2021/08/30 05:56:10;;;;;;;9.77;6.90;;;16.10;99.90;;;;;;4984992;28;20725;-71
2021/08/30 05:58:37;;;;;;;9.77;7.07;;;16.10;99.90;;;;;;4992146;28;20264;-72
2021/08/30 06:01:04;;;;;;;9.50;7.50;;;16.10;99.90;;;;;;4972683;28;20225;-71
2021/08/30 06:03:30;;;;;;;11.03;7.70;;;16.10;99.90;;;;;;4965555;28;20470;-71
2021/08/30 06:05:56;;;;;;;9.10;7.67;;;16.20;99.90;;;;;;4989272;28;20472;-70
2021/08/30 06:08:21;;;;;;;8.17;6.27;;;16.20;99.90;;;;;;4985610;28;20272;-70
2021/08/30 06:10:47;;;;;;;9.37;7.17;;;16.20;99.90;;;;;;4967291;28;20222;-71
2021/08/30 06:13:13;;;;;;;10.97;6.93;;;16.20;99.90;;;;;;4985621;28;20280;-71
2021/08/30 06:15:39;;;;;;;8.30;6.73;;;16.20;99.90;;;;;;5000048;28;20556;-70
2021/08/30 06:18:05;;;;;;;6.97;5.60;;;16.20;99.90;;;;;;5002114;28;20569;-70
2021/08/30 06:20:31;;;;;;;8.13;6.80;;;16.20;99.90;;;;;;4962326;28;20215;-70
2021/08/30 06:22:56;;;;;;;9.53;7.63;;;16.20;99.90;;;;;;4950524;28;20230;-70
2021/08/30 06:25:22;;;;;;;8.70;6.57;;;16.20;99.90;;;;;;4955902;28;20214;-70
2021/08/30 06:27:48;;;;;;;8.63;6.87;;;16.20;99.90;;;;;;4983213;28;20225;-70
2021/08/30 06:30:14;;;;;;;10.07;7.07;;;16.20;99.90;;;;;;4984593;28;20218;-71
2021/08/30 06:32:39;;;;;;;9.67;7.00;;;16.20;99.90;;;;;;4982724;28;20318;-71
2021/08/30 06:35:05;;;;;;;11.23;8.03;;;16.30;99.90;;;;;;4984237;28;20553;-70
2021/08/30 06:37:31;;;;;;;9.80;7.00;;;16.30;99.90;;;;;;4983187;28;20233;-71
2021/08/30 06:39:57;;;;;;;8.33;7.20;;;16.30;99.90;;;;;;4969282;28;20457;-72
2021/08/30 06:42:22;;;;;;;9.43;7.50;;;16.30;99.90;;;;;;4984714;28;20233;-70
2021/08/30 06:44:48;;;;;;;8.30;7.00;;;16.30;99.90;;;;;;4983098;28;20222;-71
2021/08/30 06:47:13;;;;;;;9.00;7.03;;;16.30;99.90;;;;;;4996525;28;20225;-71
2021/08/30 06:49:39;;;;;;;11.53;7.90;;;16.30;99.90;;;;;;4981590;28;20213;-70
2021/08/30 06:52:05;;;;;;;8.27;7.10;;;16.30;99.90;;;;;;4984613;28;20225;-71
2021/08/30 06:54:33;;;;;;;12.70;8.33;;;16.30;99.90;;;;;;4983326;28;20610;-70
2021/08/30 06:56:59;;;;;;;9.00;7.20;;;16.30;99.90;;;;;;4968253;28;20556;-70
2021/08/30 06:59:24;;;;;;;11.47;8.80;;;16.30;99.90;;;;;;4975063;28;21249;-71
2021/08/30 07:01:50;;;;;;;12.40;7.03;;;16.30;99.90;;;;;;4986316;28;20245;-71
2021/08/30 07:04:16;;;;;;;9.10;7.90;;;16.30;99.90;;;;;;4984193;28;20229;-71
2021/08/30 07:06:41;;;;;;;10.13;7.00;;;16.40;99.90;;;;;;4982581;28;20225;-70
2021/08/30 07:09:07;;;;;;;9.30;7.60;;;16.40;99.90;;;;;;4985924;28;20309;-70
2021/08/30 07:11:33;;;;;;;8.83;7.23;;;16.40;99.90;;;;;;4982276;28;20230;-69
2021/08/30 07:13:59;;;;;;;8.93;7.50;;;16.40;99.90;;;;;;4967058;28;20234;-70
2021/08/30 07:16:25;;;;;;;10.17;8.00;;;16.40;99.90;;;;;;4966006;28;20232;-70
2021/08/30 07:18:51;;;;;;;9.20;7.10;;;16.40;99.90;;;;;;4980281;28;20476;-71
2021/08/30 07:21:17;;;;;;;9.83;7.13;;;16.40;99.90;;;;;;4987754;28;20465;-71
2021/08/30 07:23:43;;;;;;;11.30;8.00;;;16.50;99.90;;;;;;5002025;28;20271;-70
2021/08/30 07:26:09;;;;;;;9.20;7.50;;;16.50;99.90;;;;;;5002763;28;20229;-72
2021/08/30 07:28:34;;;;;;;8.60;7.50;;;16.50;99.90;;;;;;4985239;28;20668;-71
2021/08/30 07:31:00;;;;;;;10.50;9.10;;;16.50;99.90;;;;;;4987026;28;20236;-70
2021/08/30 07:33:26;;;;;;;10.33;7.90;;;16.50;99.90;;;;;;4985970;28;20288;-70
2021/08/30 07:35:51;;;;;;;12.70;7.90;;;16.50;99.90;;;;;;4984864;28;20625;-71
2021/08/30 07:38:17;;;;;;;12.07;8.60;;;16.50;99.90;;;;;;4987051;28;20719;-71
2021/08/30 07:40:43;;;;;;;12.87;8.13;;;16.50;99.90;;;;;;4982558;28;20667;-71
2021/08/30 07:43:08;;;;;;;13.13;8.60;;;16.50;99.90;;;;;;4985860;28;20241;-71
2021/08/30 07:45:34;;;;;;;13.00;8.47;;;16.50;99.90;;;;;;4961439;28;20304;-71
2021/08/30 07:48:00;;;;;;;11.80;8.13;;;16.50;99.90;;;;;;4993624;28;20605;-71
2021/08/30 07:50:26;;;;;;;11.00;8.20;;;16.60;99.90;;;;;;4989295;28;20229;-71
2021/08/30 07:52:52;;;;;;;10.63;8.40;;;16.60;99.90;;;;;;4980036;28;20715;-71
2021/08/30 07:55:18;;;;;;;10.07;7.97;;;16.60;99.90;;;;;;4971031;28;20455;-71
2021/08/30 07:57:43;;;;;;;10.80;7.67;;;16.60;99.90;;;;;;4984864;28;20229;-71
2021/08/30 08:00:10;;;;;;;8.30;7.33;;;16.60;99.90;;;;;;4989733;28;20222;-70
2021/08/30 08:02:38;;;;;;;10.37;7.87;;;16.70;99.90;;;;;;4985271;28;20702;-71
2021/08/30 08:05:04;;;;;;;10.17;8.10;;;16.70;99.90;;;;;;4988054;28;20477;-71
2021/08/30 08:07:30;;;;;;;8.50;7.33;;;16.70;99.90;;;;;;4970215;28;20222;-71
2021/08/30 08:09:55;;;;;;;10.47;7.47;;;16.70;99.90;;;;;;4987996;28;20475;-71
2021/08/30 08:12:21;;;;;;;11.63;8.33;;;16.70;99.90;;;;;;4985514;28;20218;-70
2021/08/30 08:14:47;;;;;;;8.87;7.37;;;16.80;99.90;;;;;;4985776;28;20222;-71
2021/08/30 08:17:12;;;;;;;10.53;8.77;;;16.80;99.90;;;;;;4981341;28;20614;-70
2021/08/30 08:19:38;;;;;;;11.53;9.13;;;16.80;99.90;;;;;;4966820;28;20289;-71
2021/08/30 08:22:04;;;;;;;10.43;7.97;;;16.80;99.90;;;;;;4984378;28;20245;-71
2021/08/30 08:24:30;;;;;;;10.40;7.60;;;16.80;99.90;;;;;;4997067;28;20257;-71
2021/08/30 08:26:56;;;;;;;10.50;8.00;;;16.80;99.90;;;;;;4970554;28;20226;-71
2021/08/30 08:29:22;;;;;;;9.00;7.13;;;16.90;99.90;;;;;;4971684;28;20218;-71
2021/08/30 08:31:48;;;;;;;9.97;8.10;;;16.90;99.90;;;;;;4983081;28;20218;-70
2021/08/30 08:34:14;;;;;;;12.30;8.63;;;16.90;99.90;;;;;;4987317;28;20480;-70
2021/08/30 08:36:40;;;;;;;9.90;7.53;;;16.90;99.90;;;;;;4985799;28;20457;-70
2021/08/30 08:39:10;;;;;;;9.57;8.10;;;16.90;99.90;;;;;;4984741;28;20237;-71
2021/08/30 08:41:37;;;;;;;9.63;7.67;;;17.00;99.90;;;;;;4982316;28;20221;-71
2021/08/30 08:44:04;;;;;;;8.63;7.27;;;17.00;99.90;;;;;;4985250;28;20527;-70
2021/08/30 08:46:31;;;;;;;9.53;7.10;;;17.00;99.90;;;;;;5010627;28;20464;-71
2021/08/30 08:48:57;;;;;;;11.33;8.23;;;17.00;99.90;;;;;;5003693;28;20527;-71
2021/08/30 08:51:24;;;;;;;10.73;8.37;;;17.00;99.90;;;;;;4974535;28;20474;-70
2021/08/30 08:53:50;;;;;;;9.13;8.23;;;17.00;99.90;;;;;;4952767;28;20460;-71
2021/08/30 08:56:23;;;;;;;11.03;8.33;;;17.10;99.90;;;;;;4968051;28;20850;-71
2021/08/30 08:58:48;;;;;;;9.80;8.03;;;17.10;99.90;;;;;;4999079;28;20242;-71
2021/08/30 09:01:14;;;;;;;12.07;8.03;;;17.10;99.90;;;;;;4986011;28;20523;-70
2021/08/30 09:03:50;;;;;;;13.60;7.40;;;17.10;99.90;;;;;;4984473;28;20277;-71
2021/08/30 09:06:31;;;;;;;8.33;7.53;;;17.20;99.90;;;;;;4987397;28;20232;-71
2021/08/30 09:09:05;;;;;;;8.63;6.70;;;17.20;99.90;;;;;;5001809;28;20476;-71
2021/08/30 09:11:56;;;;;;;10.83;7.30;;;17.30;99.90;;;;;;4984485;28;20465;-70
2021/08/30 09:14:26;;;;;;;9.40;7.37;;;17.30;99.90;;;;;;4986879;28;20837;-70
2021/08/30 09:17:06;;;;;;;11.70;8.00;;;17.30;99.90;;;;;;4985352;28;20551;-70
2021/08/30 09:19:33;;;;;;;10.17;7.97;;;17.30;99.90;;;;;;5001418;28;20871;-70
2021/08/30 09:21:59;;;;;;;16.10;11.43;;;17.40;99.90;;;;;;4993590;28;20491;-71
2021/08/30 09:24:26;;;;;;;12.17;10.03;;;17.40;99.90;;;;;;4994050;28;20493;-71
2021/08/30 09:26:55;;;;;;;11.07;9.27;;;17.40;99.90;;;;;;4949489;28;20450;-70
2021/08/30 09:29:27;;;;;;;8.20;7.40;;;17.50;99.90;;;;;;4998214;28;20537;-71
2021/08/30 09:32:04;;;;;;;9.83;7.93;;;17.50;99.90;;;;;;4983591;28;20461;-71
2021/08/30 09:34:38;;;;;;;9.13;8.03;;;17.50;99.90;;;;;;4983222;28;20475;-71
2021/08/30 09:37:12;;;;;;;9.90;7.30;;;17.50;99.90;;;;;;4985339;28;20900;-71
2021/08/30 09:39:59;;;;;;;9.90;7.70;;;17.60;99.90;;;;;;4983206;28;20485;-69
2021/08/30 09:42:26;;;;;;;11.67;8.30;;;17.70;99.90;;;;;;5000963;28;20449;-70
2021/08/30 09:44:55;;;;;;;9.77;7.77;;;17.70;99.90;;;;;;4967570;28;20449;-70
2021/08/30 09:47:21;;;;;;;11.33;8.30;;;17.70;99.90;;;;;;4983543;28;20468;-70
2021/08/30 09:49:52;;;;;;;9.30;7.70;;;17.70;99.90;;;;;;4981350;28;20514;-71
2021/08/30 09:52:19;;;;;;;12.87;8.60;;;17.80;99.90;;;;;;5001330;28;20444;-71
2021/08/30 09:54:45;;;;;;;12.23;8.43;;;17.80;99.90;;;;;;4986931;28;20523;-71
2021/08/30 09:57:13;;;;;;;8.87;7.70;;;17.80;99.90;;;;;;4984695;28;21048;-70
2021/08/30 09:59:39;;;;;;;9.93;8.77;;;17.80;99.90;;;;;;4985595;28;20488;-70
2021/08/30 10:02:06;;;;;;;9.13;8.13;;;17.80;99.90;;;;;;4978119;28;20466;-70
2021/08/30 10:04:33;;;;;;;7.93;7.00;;;17.90;99.90;;;;;;4985441;28;20457;-71
2021/08/30 10:06:59;;;;;;;10.30;8.10;;;17.90;99.90;;;;;;4987294;28;20449;-71
2021/08/30 10:09:26;;;;;;;10.20;8.20;;;17.90;99.90;;;;;;4986506;28;20457;-71
2021/08/30 10:11:52;;;;;;;9.30;7.80;;;18.00;99.90;;;;;;4984870;28;20453;-70
2021/08/30 10:14:23;;;;;;;8.43;7.40;;;18.00;99.90;;;;;;4986153;28;21045;-69
2021/08/30 10:16:50;;;;;;;8.77;6.63;;;18.00;99.90;;;;;;4985007;28;20484;-70
2021/08/30 10:19:30;;;;;;;9.93;7.50;;;18.10;99.90;;;;;;4986298;28;20457;-70
2021/08/30 10:21:58;;;;;;;9.73;7.30;;;18.10;99.90;;;;;;4982286;28;20469;-70
2021/08/30 10:24:25;;;;;;;8.73;7.50;;;18.10;99.90;;;;;;4984348;28;20496;-69
2021/08/30 10:27:02;;;;;;;7.80;7.00;;;18.10;99.90;;;;;;4980341;28;20956;-70
2021/08/30 10:29:33;;;;;;;7.70;6.80;;;18.20;99.90;;;;;;4982871;28;20456;-71
2021/08/30 10:31:58;;;;;;;8.53;7.00;;;18.20;99.90;;;;;;4983032;28;20548;-71
2021/08/30 10:34:27;;;;;;;13.70;7.30;;;18.20;99.90;;;;;;4983591;28;20567;-69
2021/08/30 10:36:53;;;;;;;8.07;7.03;;;18.30;99.90;;;;;;4981562;28;20238;-70
2021/08/30 10:39:20;;;;;;;8.40;7.23;;;18.20;99.90;;;;;;4983680;28;20477;-71
2021/08/30 10:41:46;;;;;;;9.90;7.97;;;18.20;99.90;;;;;;4980113;28;20469;-70
2021/08/30 10:44:20;;;;;;;10.60;8.50;;;18.20;99.90;;;;;;4983254;28;20481;-71
2021/08/30 10:46:55;;;;;;;8.23;6.60;;;18.20;99.90;;;;;;4994949;28;20467;-71
2021/08/30 10:49:27;;;;;;;11.90;8.40;;;18.20;99.90;;;;;;4998055;28;20475;-70
2021/08/30 10:52:05;;;;;;;11.47;7.30;;;18.20;99.90;;;;;;4979669;28;20461;-70
2021/08/30 10:54:30;;;;;;;8.40;7.30;;;18.20;99.90;;;;;;4980371;28;20465;-71
2021/08/30 10:56:59;;;;;;;8.77;6.83;;;18.20;99.90;;;;;;4978715;28;20533;-70
2021/08/30 10:59:30;;;;;;;7.43;6.60;;;18.20;99.90;;;;;;4988332;28;20229;-71
2021/08/30 11:02:03;;;;;;;9.93;7.73;;;18.20;99.90;;;;;;4985676;28;20486;-70
2021/08/30 11:04:34;;;;;;;8.30;7.10;;;18.20;99.90;;;;;;4982946;28;20469;-70
2021/08/30 11:07:01;;;;;;;10.03;7.17;;;18.20;99.90;;;;;;4966539;28;20564;-70
2021/08/30 11:09:27;;;;;;;11.13;7.77;;;18.20;99.90;;;;;;4963916;28;20465;-70
2021/08/30 11:11:53;;;;;;;12.20;7.00;;;18.20;99.90;;;;;;4978141;28;20999;-70
2021/08/30 11:14:20;;;;;;;9.13;7.17;;;18.20;99.90;;;;;;4982485;28;20465;-70
2021/08/30 11:16:56;;;;;;;9.50;6.80;;;18.20;99.90;;;;;;4980589;28;20474;-70
2021/08/30 11:19:25;;;;;;;14.43;7.87;;;18.30;99.90;;;;;;4982350;28;20517;-70
2021/08/30 11:21:58;;;;;;;10.27;7.77;;;18.30;99.90;;;;;;4979402;28;20468;-70
2021/08/30 11:24:35;;;;;;;8.87;7.60;;;18.30;99.90;;;;;;4983770;28;21006;-69
2021/08/30 11:27:24;;;;;;;9.67;7.57;;;18.30;99.90;;;;;;4998851;28;20468;-70
2021/08/30 11:29:52;;;;;;;9.73;7.73;;;18.30;99.90;;;;;;4981491;28;20460;-70
2021/08/30 11:32:20;;;;;;;8.27;6.90;;;18.40;99.90;;;;;;4966772;28;20468;-70
2021/08/30 11:34:47;;;;;;;10.30;7.73;;;18.40;99.90;;;;;;4964627;28;20534;-71
2021/08/30 11:37:15;;;;;;;9.87;7.30;;;18.40;99.90;;;;;;4981456;28;20837;-71
2021/08/30 11:39:46;;;;;;;7.10;6.27;;;18.40;99.90;;;;;;4980754;28;20958;-71
2021/08/30 11:42:14;;;;;;;10.30;7.40;;;18.40;99.90;;;;;;4983494;28;20449;-70
2021/08/30 11:44:42;;;;;;;7.70;6.87;;;18.40;99.90;;;;;;4964506;28;20518;-70
2021/08/30 11:47:10;;;;;;;7.40;6.17;;;18.50;99.90;;;;;;4998482;28;20448;-70
2021/08/30 11:49:52;;;;;;;7.93;7.10;;;18.50;99.90;;;;;;4963095;28;21043;-70
2021/08/30 11:52:24;;;;;;;8.43;6.93;;;18.60;99.90;;;;;;4981928;28;20463;-70
2021/08/30 11:55:08;;;;;;;7.20;6.30;;;18.60;99.90;;;;;;4980753;28;21060;-70
2021/08/30 11:57:46;;;;;;;7.30;6.60;;;18.60;99.90;;;;;;4993388;28;20481;-71
2021/08/30 12:00:24;;;;;;;8.77;6.93;;;18.60;99.90;;;;;;5000570;28;20457;-70
2021/08/30 12:02:58;;;;;;;8.37;6.80;;;18.60;99.90;;;;;;4976177;28;20441;-70
2021/08/30 12:05:26;;;;;;;6.47;5.80;;;18.60;99.90;;;;;;4996780;28;20460;-70
2021/08/30 12:07:53;;;;;;;8.30;6.83;;;18.70;99.90;;;;;;4983523;28;20525;-70
2021/08/30 12:10:20;;;;;;;8.60;6.50;;;18.70;99.90;;;;;;4976235;28;20573;-71
2021/08/30 12:15:24;;;;;;;9.40;7.23;;;18.70;99.90;;;;;;4984607;28;20475;-70
2021/08/30 12:17:54;;;;;;;7.87;7.07;;;18.70;99.90;;;;;;4983776;28;20492;-70
2021/08/30 12:20:27;;;;;;;9.53;7.20;;;18.70;99.90;;;;;;4986066;28;20539;-71
2021/08/30 12:22:55;;;;;;;9.73;7.20;;;18.80;99.90;;;;;;4997497;28;20518;-71
2021/08/30 12:25:23;;;;;;;9.80;7.10;;;18.80;99.90;;;;;;4987485;28;20889;-70
2021/08/30 12:27:53;;;;;;;7.93;6.63;;;18.80;99.90;;;;;;4983069;28;21035;-71
2021/08/30 12:30:26;;;;;;;9.70;7.00;;;18.90;99.90;;;;;;4986337;28;20468;-70
2021/08/30 12:33:01;;;;;;;9.10;7.00;;;18.90;99.90;;;;;;4999685;28;21021;-71
2021/08/30 12:35:30;;;;;;;7.93;7.07;;;18.90;99.90;;;;;;4969190;28;20495;-69
2021/08/30 12:38:08;;;;;;;8.07;7.13;;;19.00;99.90;;;;;;4984220;28;20469;-70
2021/08/30 12:40:35;;;;;;;8.27;7.30;;;19.00;99.90;;;;;;4983093;28;20978;-69
2021/08/30 12:43:02;;;;;;;9.60;8.03;;;19.00;99.90;;;;;;4984704;28;20461;-70
2021/08/30 12:45:28;;;;;;;6.80;6.10;;;19.00;99.90;;;;;;4985601;28;20461;-69
2021/08/30 12:47:54;;;;;;;9.00;7.30;;;19.00;99.90;;;;;;4993550;28;20465;-70
2021/08/30 12:50:21;;;;;;;11.27;7.20;;;19.00;99.90;;;;;;4979483;28;20461;-70
2021/08/30 12:52:47;;;;;;;7.57;6.03;;;19.10;99.90;;;;;;4981718;28;20229;-70
2021/08/30 12:55:14;;;;;;;7.93;7.13;;;19.10;99.90;;;;;;4984889;28;20516;-70